Time;durP1;ratioP1;P1;durP2;ratioP2;P2;SDS_P1;SDS_P2;PMS_P1;PMS_P2;Temp;Humidity;BMP_temperature;BMP_pressure;BME280_temperature;BME280_humidity;BME280_pressure;Samples;Min_cycle;Max_cycle;Signal;HPM_P1;HPM_P2
2023/02/20 00:02:15;;;;;;;111.22;52.05;;;6.20;99.90;;;;;;4951982;28;20043;-73
2023/02/20 00:04:40;;;;;;;106.32;50.55;;;6.20;99.90;;;;;;4959956;28;20089;-73
2023/02/20 00:07:06;;;;;;;95.28;48.67;;;6.20;99.90;;;;;;4952033;28;20599;-73
2023/02/20 00:09:32;;;;;;;94.32;45.15;;;6.10;99.90;;;;;;4964994;28;20097;-73
2023/02/20 00:11:57;;;;;;;104.13;49.20;;;6.00;99.90;;;;;;4964632;28;20066;-73
2023/02/20 00:14:23;;;;;;;106.40;50.63;;;6.00;99.90;;;;;;4959554;28;20639;-73
2023/02/20 00:16:49;;;;;;;104.63;45.10;;;6.10;99.90;;;;;;4952305;28;20039;-72
2023/02/20 00:19:15;;;;;;;105.80;49.58;;;6.10;99.90;;;;;;4956006;28;20069;-73
2023/02/20 00:21:46;;;;;;;96.68;49.60;;;6.00;99.90;;;;;;4954285;28;20027;-72
2023/02/20 00:24:12;;;;;;;99.38;50.25;;;6.10;99.90;;;;;;4963663;28;20038;-73
2023/02/20 00:26:37;;;;;;;109.93;51.13;;;6.00;99.90;;;;;;4963633;28;20396;-73
2023/02/20 00:29:03;;;;;;;99.07;45.22;;;6.00;99.90;;;;;;4964046;28;20030;-73
2023/02/20 00:31:28;;;;;;;97.13;48.85;;;6.00;99.90;;;;;;4956202;28;20049;-72
2023/02/20 00:33:54;;;;;;;100.90;49.85;;;5.90;99.90;;;;;;4975544;28;20031;-73
2023/02/20 00:36:20;;;;;;;107.53;49.95;;;5.90;99.90;;;;;;4974590;28;20039;-73
2023/02/20 00:38:46;;;;;;;106.65;51.95;;;5.90;99.90;;;;;;4954858;28;20691;-72
2023/02/20 00:41:13;;;;;;;110.72;54.22;;;5.90;99.90;;;;;;4955817;28;20038;-73
2023/02/20 00:43:39;;;;;;;95.35;48.22;;;6.00;99.90;;;;;;4957698;28;20090;-72
2023/02/20 00:46:05;;;;;;;103.25;49.65;;;5.90;99.90;;;;;;4959070;28;20027;-73
2023/02/20 00:48:31;;;;;;;108.00;51.63;;;5.80;99.90;;;;;;4966472;28;20038;-73
2023/02/20 00:50:56;;;;;;;99.72;47.83;;;5.90;99.90;;;;;;4954628;28;20054;-73
2023/02/20 00:53:22;;;;;;;99.13;47.05;;;5.80;99.90;;;;;;4961779;28;20023;-73
2023/02/20 00:55:47;;;;;;;108.00;51.65;;;5.90;99.90;;;;;;4957918;28;20039;-73
2023/02/20 00:58:13;;;;;;;105.38;47.35;;;5.80;99.90;;;;;;4953249;28;20122;-73
2023/02/20 01:00:39;;;;;;;104.53;50.08;;;5.80;99.90;;;;;;4959791;28;20035;-73
2023/02/20 01:03:04;;;;;;;102.90;48.22;;;5.80;99.90;;;;;;4963267;28;20058;-72
2023/02/20 01:05:30;;;;;;;105.38;48.55;;;5.90;99.90;;;;;;4954122;28;20462;-73
2023/02/20 01:07:55;;;;;;;96.10;47.30;;;5.80;99.90;;;;;;4953315;28;20424;-73
2023/02/20 01:10:21;;;;;;;104.82;49.50;;;5.90;99.90;;;;;;4968661;28;20027;-73
2023/02/20 01:12:47;;;;;;;100.50;50.83;;;5.90;99.90;;;;;;4966343;28;20395;-73
2023/02/20 01:15:14;;;;;;;106.35;49.25;;;6.00;99.90;;;;;;4958321;28;20121;-73
2023/02/20 01:17:39;;;;;;;109.30;50.28;;;6.00;99.90;;;;;;4965278;28;20492;-74
2023/02/20 01:20:07;;;;;;;114.35;51.25;;;6.10;99.90;;;;;;4959658;28;20250;-73
2023/02/20 01:22:32;;;;;;;105.18;50.90;;;6.20;99.90;;;;;;4952862;28;20046;-72
2023/02/20 01:24:58;;;;;;;109.28;52.35;;;6.20;99.90;;;;;;4959086;28;20393;-73
2023/02/20 01:27:23;;;;;;;101.97;47.95;;;6.30;99.90;;;;;;4966848;28;20397;-73
2023/02/20 01:29:49;;;;;;;100.07;50.38;;;6.30;99.90;;;;;;4956669;28;20031;-73
2023/02/20 01:32:14;;;;;;;101.65;48.17;;;6.30;99.90;;;;;;4955417;28;20035;-72
2023/02/20 01:34:40;;;;;;;111.65;50.22;;;6.30;99.90;;;;;;4960744;28;20034;-73
2023/02/20 01:37:06;;;;;;;101.57;50.35;;;6.30;99.90;;;;;;4974958;28;20057;-73
2023/02/20 01:39:31;;;;;;;98.05;47.78;;;6.40;99.90;;;;;;4967427;28;20035;-73
2023/02/20 01:42:00;;;;;;;99.63;50.30;;;6.40;99.90;;;;;;4966779;28;20477;-73
2023/02/20 01:44:35;;;;;;;100.75;47.40;;;6.40;99.90;;;;;;4957064;28;20053;-72
2023/02/20 01:47:08;;;;;;;93.47;48.17;;;6.40;99.90;;;;;;4967291;28;20033;-73
2023/02/20 01:49:39;;;;;;;102.53;47.47;;;6.40;99.90;;;;;;4957193;28;20153;-73
2023/02/20 01:52:17;;;;;;;96.60;45.30;;;6.20;99.90;;;;;;4963718;28;20031;-73
2023/02/20 01:54:48;;;;;;;99.63;49.85;;;6.20;99.90;;;;;;4955860;28;20034;-73
2023/02/20 01:57:23;;;;;;;97.13;47.25;;;6.30;99.90;;;;;;4962656;28;20400;-72
2023/02/20 01:59:53;;;;;;;96.47;45.60;;;6.30;99.90;;;;;;4955206;28;20086;-73
2023/02/20 02:02:19;;;;;;;103.82;47.92;;;6.40;99.90;;;;;;4959964;28;20030;-73
2023/02/20 02:04:48;;;;;;;93.35;47.85;;;6.40;99.90;;;;;;4956225;28;21860;-73
2023/02/20 02:07:14;;;;;;;96.22;47.75;;;6.50;99.90;;;;;;4955471;28;20027;-73
2023/02/20 02:09:53;;;;;;;95.53;45.65;;;6.60;99.90;;;;;;4959371;28;20540;-73
2023/02/20 02:12:19;;;;;;;103.53;48.00;;;6.60;99.90;;;;;;4962360;28;20089;-73
2023/02/20 02:14:45;;;;;;;92.00;47.35;;;6.70;99.90;;;;;;4964419;28;20031;-73
2023/02/20 02:17:41;;;;;;;97.18;49.50;;;6.70;99.90;;;;;;4965905;28;20110;-73
2023/02/20 02:20:28;;;;;;;101.60;47.80;;;6.70;99.90;;;;;;4954542;28;20089;-73
2023/02/20 02:23:11;;;;;;;95.65;46.45;;;6.70;99.90;;;;;;4964019;28;20121;-73
2023/02/20 02:25:58;;;;;;;98.05;48.65;;;6.70;99.90;;;;;;4960670;28;20082;-73
2023/02/20 02:28:53;;;;;;;107.60;48.22;;;6.70;99.90;;;;;;4964659;28;20452;-73
2023/02/20 02:31:46;;;;;;;91.97;44.20;;;6.70;99.90;;;;;;4951361;28;20408;-73
2023/02/20 02:34:42;;;;;;;103.10;47.33;;;6.70;99.90;;;;;;4956522;28;20033;-73
2023/02/20 02:37:32;;;;;;;93.45;47.67;;;6.70;99.90;;;;;;4966293;28;20034;-73
2023/02/20 02:40:01;;;;;;;91.78;44.42;;;6.70;99.90;;;;;;4953690;28;20110;-73
2023/02/20 02:42:49;;;;;;;96.78;46.13;;;6.80;99.90;;;;;;4953155;28;20119;-72
2023/02/20 02:45:31;;;;;;;98.63;46.75;;;6.80;99.90;;;;;;4964121;28;20176;-72
2023/02/20 02:48:13;;;;;;;95.28;45.45;;;6.80;99.90;;;;;;4958730;28;20039;-72
2023/02/20 02:50:42;;;;;;;105.60;50.58;;;6.70;99.90;;;;;;4960014;28;20731;-72
2023/02/20 02:53:09;;;;;;;97.40;48.58;;;6.80;99.90;;;;;;4957674;28;20027;-73
2023/02/20 02:55:35;;;;;;;95.50;47.42;;;6.80;99.90;;;;;;4963707;28;20045;-72
2023/02/20 02:58:03;;;;;;;91.65;46.97;;;6.90;99.90;;;;;;4960521;28;20043;-74
2023/02/20 03:00:41;;;;;;;90.63;46.05;;;6.90;99.90;;;;;;4962268;28;20805;-73
2023/02/20 03:03:18;;;;;;;99.40;46.55;;;7.00;99.90;;;;;;4973005;28;20412;-73
2023/02/20 03:05:53;;;;;;;89.20;46.22;;;7.00;99.90;;;;;;4957707;28;20034;-73
2023/02/20 03:08:30;;;;;;;108.28;48.47;;;7.00;99.90;;;;;;4962457;28;20023;-73
2023/02/20 03:11:03;;;;;;;107.68;49.53;;;6.90;99.90;;;;;;4957320;28;20106;-72
2023/02/20 03:16:31;;;;;;;92.07;48.00;;;6.90;99.90;;;;;;4959405;28;20057;-73
2023/02/20 03:19:00;;;;;;;98.75;45.80;;;7.00;99.90;;;;;;4963697;28;20028;-73
2023/02/20 03:21:28;;;;;;;92.03;47.13;;;6.90;99.90;;;;;;4953998;28;20058;-72
2023/02/20 03:23:58;;;;;;;90.03;45.33;;;6.90;99.90;;;;;;4963346;28;20031;-73
2023/02/20 03:26:36;;;;;;;84.82;45.35;;;6.90;99.90;;;;;;4960870;28;20481;-73
2023/02/20 03:29:10;;;;;;;98.40;49.33;;;6.80;99.90;;;;;;4958038;28;20038;-72
2023/02/20 03:43:22;;;;;;;99.72;48.03;;;7.00;99.90;;;;;;4953286;28;20042;-73
2023/02/20 03:45:48;;;;;;;101.53;51.83;;;7.00;99.90;;;;;;4955963;28;20034;-72
2023/02/20 03:48:28;;;;;;;92.50;46.50;;;6.90;99.90;;;;;;4953119;28;20067;-73
2023/02/20 03:51:12;;;;;;;95.22;48.13;;;6.90;99.90;;;;;;4952253;28;20489;-73
2023/02/20 03:53:39;;;;;;;101.38;50.67;;;6.90;99.90;;;;;;4951397;28;20038;-72
2023/02/20 03:56:10;;;;;;;95.78;46.33;;;6.90;99.90;;;;;;4956555;28;20039;-73
2023/02/20 03:58:40;;;;;;;94.90;48.13;;;6.80;99.90;;;;;;4950934;28;20070;-73
2023/02/20 04:01:08;;;;;;;92.82;45.80;;;6.90;99.90;;;;;;4956743;28;20041;-73
2023/02/20 04:03:40;;;;;;;101.10;49.83;;;6.90;99.90;;;;;;4947767;28;20047;-75
2023/02/20 04:06:08;;;;;;;99.88;46.33;;;6.80;99.90;;;;;;4951122;28;20027;-73
2023/02/20 04:08:45;;;;;;;94.18;44.03;;;6.80;99.90;;;;;;4946900;28;20113;-73
2023/02/20 04:11:20;;;;;;;98.13;50.45;;;6.70;99.90;;;;;;4950037;28;20035;-73
2023/02/20 04:13:48;;;;;;;99.55;48.58;;;6.80;99.90;;;;;;4956484;28;20062;-73
2023/02/20 04:16:14;;;;;;;98.78;50.15;;;6.70;99.90;;;;;;4946590;28;20545;-73
2023/02/20 04:18:40;;;;;;;99.80;48.13;;;6.70;99.90;;;;;;4946349;28;20150;-73
2023/02/20 04:21:32;;;;;;;93.88;46.15;;;6.80;99.90;;;;;;4947245;28;20114;-74
2023/02/20 04:24:09;;;;;;;96.72;48.08;;;6.60;99.90;;;;;;4945345;28;20046;-74
2023/02/20 04:26:35;;;;;;;98.85;47.78;;;6.70;99.90;;;;;;4956962;28;20396;-73
2023/02/20 04:29:02;;;;;;;92.75;48.80;;;6.70;99.90;;;;;;4952547;28;20066;-73
2023/02/20 04:31:28;;;;;;;90.18;45.10;;;6.60;99.90;;;;;;4950013;28;20038;-73
2023/02/20 04:33:53;;;;;;;94.43;45.80;;;6.50;99.90;;;;;;4947924;28;20046;-74
2023/02/20 04:36:20;;;;;;;94.38;50.38;;;6.30;99.90;;;;;;4949432;28;20043;-73
2023/02/20 04:38:45;;;;;;;98.22;49.92;;;6.30;99.90;;;;;;4947159;28;20035;-73
2023/02/20 04:41:11;;;;;;;93.65;46.85;;;6.30;99.90;;;;;;4952599;28;20456;-73
2023/02/20 04:43:37;;;;;;;91.95;46.75;;;6.40;99.90;;;;;;4955479;28;20046;-73
2023/02/20 04:46:02;;;;;;;98.40;49.75;;;6.40;99.90;;;;;;4957073;28;20035;-74
2023/02/20 04:48:28;;;;;;;98.93;49.63;;;6.40;99.90;;;;;;4944017;28;20571;-73
2023/02/20 04:50:54;;;;;;;92.82;45.83;;;6.40;99.90;;;;;;4951927;28;20133;-73
2023/02/20 04:53:19;;;;;;;92.72;48.50;;;6.40;99.90;;;;;;4955516;28;20078;-73
2023/02/20 04:55:45;;;;;;;88.50;47.38;;;6.50;99.90;;;;;;4960274;28;20062;-73
2023/02/20 04:58:11;;;;;;;89.03;44.47;;;6.40;99.90;;;;;;4949823;28;20110;-73
2023/02/20 05:00:36;;;;;;;89.97;46.15;;;6.40;99.90;;;;;;4947550;28;20126;-73
2023/02/20 05:03:02;;;;;;;94.45;47.03;;;6.40;99.90;;;;;;4951785;28;20119;-73
2023/02/20 05:05:29;;;;;;;96.32;45.90;;;6.30;99.90;;;;;;4943628;28;20036;-74
2023/02/20 05:08:00;;;;;;;88.32;45.85;;;6.30;99.90;;;;;;4949284;28;20485;-74
2023/02/20 05:10:27;;;;;;;88.78;46.05;;;6.20;99.90;;;;;;4951257;28;20122;-74
2023/02/20 05:12:53;;;;;;;89.85;45.92;;;6.20;99.90;;;;;;4946735;28;20041;-74
2023/02/20 05:15:19;;;;;;;88.18;46.88;;;6.20;99.90;;;;;;4948874;28;20032;-74
2023/02/20 05:17:45;;;;;;;97.30;48.58;;;6.20;99.90;;;;;;4952041;28;20043;-74
2023/02/20 05:20:12;;;;;;;94.68;46.80;;;6.20;99.90;;;;;;4949561;28;20039;-74
2023/02/20 05:22:38;;;;;;;93.57;47.25;;;6.10;99.90;;;;;;4951289;28;20126;-74
2023/02/20 05:25:04;;;;;;;90.53;45.00;;;6.10;99.90;;;;;;4953922;28;20102;-74
2023/02/20 05:27:30;;;;;;;92.03;46.17;;;6.10;99.90;;;;;;4953701;28;20493;-74
2023/02/20 05:29:57;;;;;;;91.47;47.55;;;6.00;99.90;;;;;;4948576;28;20082;-74
2023/02/20 05:32:25;;;;;;;86.63;48.50;;;6.00;99.90;;;;;;4947921;28;20065;-75
2023/02/20 05:34:52;;;;;;;93.22;45.78;;;6.10;99.90;;;;;;4948677;28;20086;-76
2023/02/20 05:37:18;;;;;;;96.30;49.30;;;6.10;99.90;;;;;;4951319;28;20043;-74
2023/02/20 05:39:47;;;;;;;88.22;45.03;;;6.10;99.90;;;;;;4950963;28;20047;-74
2023/02/20 05:42:14;;;;;;;95.13;46.58;;;6.10;99.90;;;;;;4958093;28;20106;-74
2023/02/20 05:44:40;;;;;;;91.65;45.15;;;6.10;99.90;;;;;;4952006;28;20106;-74
2023/02/20 05:47:06;;;;;;;90.50;46.53;;;6.00;99.90;;;;;;4954228;28;20171;-74
2023/02/20 05:49:33;;;;;;;84.05;41.92;;;5.90;99.90;;;;;;4954493;28;20047;-74
2023/02/20 05:52:01;;;;;;;93.75;49.45;;;5.90;99.90;;;;;;4957973;28;20030;-74
2023/02/20 05:54:26;;;;;;;99.47;47.47;;;5.90;99.90;;;;;;4952329;28;20050;-76
2023/02/20 05:56:52;;;;;;;88.30;44.20;;;5.80;99.90;;;;;;4951243;28;20035;-75
2023/02/20 05:59:21;;;;;;;87.03;44.58;;;5.90;99.90;;;;;;4954079;28;20054;-74
2023/02/20 06:01:53;;;;;;;102.10;50.30;;;5.90;99.90;;;;;;4951167;28;20339;-74
2023/02/20 06:04:19;;;;;;;86.93;43.67;;;6.00;99.90;;;;;;4952401;28;20122;-74
2023/02/20 06:06:45;;;;;;;96.25;46.42;;;5.90;99.90;;;;;;4950239;28;20110;-74
2023/02/20 06:09:12;;;;;;;85.53;44.35;;;5.90;99.90;;;;;;4948710;28;20086;-74
2023/02/20 06:11:40;;;;;;;80.38;43.22;;;5.80;99.90;;;;;;4957699;28;20054;-75
2023/02/20 06:14:07;;;;;;;89.78;46.22;;;5.80;99.90;;;;;;4948045;28;20269;-74
2023/02/20 06:16:34;;;;;;;86.90;44.47;;;5.70;99.90;;;;;;4946134;28;20365;-74
2023/02/20 06:19:00;;;;;;;93.45;46.13;;;5.80;99.90;;;;;;4952670;28;20457;-74
2023/02/20 06:21:26;;;;;;;84.32;45.92;;;5.80;99.90;;;;;;4954446;28;20042;-74
2023/02/20 06:23:54;;;;;;;91.88;45.65;;;5.80;99.90;;;;;;4957106;28;20031;-74
2023/02/20 06:26:21;;;;;;;91.90;47.58;;;5.70;99.90;;;;;;4956395;28;20020;-73
2023/02/20 06:28:49;;;;;;;84.00;41.72;;;5.90;99.90;;;;;;4952513;28;20106;-72
2023/02/20 06:31:24;;;;;;;88.78;43.90;;;5.90;99.90;;;;;;4945950;28;20027;-73
2023/02/20 06:33:49;;;;;;;83.85;41.65;;;6.00;99.90;;;;;;4944329;28;20037;-73
2023/02/20 06:36:24;;;;;;;93.28;45.53;;;6.00;99.90;;;;;;4953420;28;20039;-73
2023/02/20 06:38:51;;;;;;;86.72;46.15;;;5.80;99.90;;;;;;4946173;28;20086;-74
2023/02/20 06:41:16;;;;;;;97.07;44.72;;;5.70;99.90;;;;;;4945350;28;20031;-74
2023/02/20 06:43:42;;;;;;;94.55;44.30;;;5.60;99.90;;;;;;4949783;28;20477;-74
2023/02/20 06:46:09;;;;;;;89.93;46.90;;;5.60;99.90;;;;;;4945722;28;20070;-73
2023/02/20 06:48:42;;;;;;;93.38;46.70;;;5.70;99.90;;;;;;4950985;28;20039;-73
2023/02/20 06:51:07;;;;;;;84.07;43.78;;;5.70;99.90;;;;;;4947986;28;20051;-72
2023/02/20 06:53:36;;;;;;;87.07;42.72;;;5.80;99.90;;;;;;4957272;28;20370;-74
2023/02/20 06:56:06;;;;;;;85.18;44.35;;;5.90;99.90;;;;;;4959188;28;20109;-72
2023/02/20 06:58:32;;;;;;;91.30;44.63;;;5.90;99.90;;;;;;4947160;28;20063;-72
2023/02/20 07:00:58;;;;;;;94.78;46.72;;;5.90;99.90;;;;;;4960685;28;20124;-73
2023/02/20 07:03:24;;;;;;;89.72;42.63;;;5.90;99.90;;;;;;4945990;28;20046;-74
2023/02/20 07:05:50;;;;;;;90.22;46.10;;;5.90;99.90;;;;;;4948307;28;20031;-72
2023/02/20 07:08:15;;;;;;;86.20;44.80;;;6.00;99.90;;;;;;4948439;28;20573;-73
2023/02/20 07:10:41;;;;;;;103.78;45.33;;;6.10;99.90;;;;;;4958452;28;20034;-74
2023/02/20 07:13:07;;;;;;;93.93;44.63;;;6.10;99.90;;;;;;4949942;28;20031;-72
2023/02/20 07:15:32;;;;;;;79.93;44.00;;;6.20;99.90;;;;;;4958826;28;20030;-73
2023/02/20 07:17:58;;;;;;;90.30;45.15;;;6.20;99.90;;;;;;4947386;28;20461;-73
2023/02/20 07:20:24;;;;;;;86.07;45.92;;;6.20;99.90;;;;;;4954431;28;20089;-73
2023/02/20 07:22:53;;;;;;;89.82;46.60;;;6.20;99.90;;;;;;4953158;28;20773;-75
2023/02/20 07:25:19;;;;;;;93.40;47.08;;;6.20;99.90;;;;;;4957041;28;20476;-73
2023/02/20 07:27:45;;;;;;;89.15;45.65;;;6.20;99.90;;;;;;4951981;28;20035;-72
2023/02/20 07:30:11;;;;;;;84.80;44.58;;;6.30;99.90;;;;;;4948654;28;20608;-73
2023/02/20 07:32:37;;;;;;;82.22;42.15;;;6.30;99.90;;;;;;4945784;28;20039;-72
2023/02/20 07:35:02;;;;;;;88.70;42.63;;;6.50;99.90;;;;;;4947342;28;20544;-74
2023/02/20 07:37:28;;;;;;;83.38;43.03;;;6.60;99.90;;;;;;4955326;28;20148;-74
2023/02/20 07:39:54;;;;;;;73.68;39.38;;;6.60;99.90;;;;;;4957905;28;20885;-73
2023/02/20 07:42:19;;;;;;;82.07;42.55;;;6.40;99.90;;;;;;4951890;28;20027;-74
2023/02/20 07:44:47;;;;;;;83.60;43.10;;;6.00;99.90;;;;;;4951464;28;20034;-73
2023/02/20 07:47:13;;;;;;;75.30;39.63;;;6.00;99.90;;;;;;4954139;28;20035;-74
2023/02/20 07:49:39;;;;;;;68.22;39.53;;;6.20;99.90;;;;;;4956484;28;20515;-73
2023/02/20 07:52:04;;;;;;;62.03;36.20;;;6.30;99.90;;;;;;4950663;28;20027;-74
2023/02/20 07:54:30;;;;;;;67.53;36.47;;;6.20;99.90;;;;;;4950773;28;20027;-74
2023/02/20 07:56:56;;;;;;;66.93;37.83;;;6.30;99.90;;;;;;4951330;28;20404;-74
2023/02/20 07:59:22;;;;;;;66.18;36.63;;;6.30;99.90;;;;;;4958563;28;20023;-73
2023/02/20 08:01:48;;;;;;;72.45;38.92;;;6.20;99.90;;;;;;4959727;28;20039;-77
2023/02/20 08:04:13;;;;;;;70.22;36.85;;;6.20;99.90;;;;;;4951974;28;20500;-74
2023/02/20 08:06:39;;;;;;;61.10;34.70;;;6.20;99.90;;;;;;4948717;28;20457;-74
2023/02/20 08:09:05;;;;;;;65.75;34.65;;;6.20;99.90;;;;;;4943603;28;20027;-74
2023/02/20 08:11:35;;;;;;;67.20;35.20;;;6.20;99.90;;;;;;4952683;28;20031;-75
2023/02/20 08:14:02;;;;;;;72.57;36.53;;;6.20;99.90;;;;;;4951143;28;20050;-76
2023/02/20 08:16:28;;;;;;;71.07;37.40;;;6.20;99.90;;;;;;4948655;28;20122;-75
2023/02/20 08:18:54;;;;;;;66.20;36.05;;;6.30;99.90;;;;;;4948266;28;20573;-74
2023/02/20 08:21:20;;;;;;;70.60;36.30;;;6.10;99.90;;;;;;4955303;28;20027;-75
2023/02/20 08:23:46;;;;;;;70.75;39.08;;;6.30;99.90;;;;;;4947366;28;20031;-75
2023/02/20 08:26:12;;;;;;;67.57;37.28;;;6.30;99.90;;;;;;4956470;28;20026;-74
2023/02/20 08:28:38;;;;;;;71.45;38.53;;;6.40;99.90;;;;;;4946070;28;20042;-75
2023/02/20 08:31:04;;;;;;;68.82;37.08;;;6.60;99.90;;;;;;4949319;28;20031;-74
2023/02/20 08:33:30;;;;;;;60.25;33.90;;;6.50;99.90;;;;;;4961043;28;20150;-74
2023/02/20 08:35:56;;;;;;;73.45;38.33;;;6.60;99.90;;;;;;4946633;28;20030;-74
2023/02/20 08:38:29;;;;;;;69.50;37.38;;;6.50;99.90;;;;;;4961744;28;20031;-74
2023/02/20 08:40:55;;;;;;;67.03;37.72;;;6.40;99.90;;;;;;4957392;28;20034;-75
2023/02/20 08:43:21;;;;;;;68.18;38.00;;;6.60;99.90;;;;;;4963522;28;20042;-74
2023/02/20 08:45:47;;;;;;;67.60;37.03;;;6.60;99.90;;;;;;4955376;28;20031;-74
2023/02/20 08:48:13;;;;;;;68.25;36.95;;;6.70;99.90;;;;;;4950111;28;20401;-74
2023/02/20 08:50:38;;;;;;;64.18;35.20;;;6.80;99.90;;;;;;4957012;28;20142;-75
2023/02/20 08:53:04;;;;;;;70.25;35.63;;;6.90;99.90;;;;;;4950162;28;20069;-75
2023/02/20 08:55:30;;;;;;;61.53;33.88;;;6.80;99.90;;;;;;4955755;28;20093;-75
2023/02/20 08:57:56;;;;;;;68.45;36.30;;;6.90;99.90;;;;;;4953485;28;20097;-73
2023/02/20 09:00:21;;;;;;;67.47;36.42;;;7.00;99.90;;;;;;4960175;28;20126;-75
2023/02/20 09:02:47;;;;;;;72.22;37.95;;;7.10;99.90;;;;;;4958117;28;20027;-75
2023/02/20 09:05:16;;;;;;;69.10;36.83;;;7.00;99.90;;;;;;4958609;28;20042;-74
2023/02/20 09:07:44;;;;;;;69.25;38.05;;;7.00;99.90;;;;;;4953574;28;20038;-75
2023/02/20 09:10:10;;;;;;;64.60;35.05;;;7.10;99.90;;;;;;4963665;28;20062;-75
2023/02/20 09:12:36;;;;;;;62.53;32.55;;;7.20;99.90;;;;;;4948773;28;20031;-75
2023/02/20 09:15:02;;;;;;;62.20;33.58;;;7.20;99.90;;;;;;4963810;28;20314;-75
2023/02/20 09:17:28;;;;;;;59.78;31.27;;;7.10;99.90;;;;;;4955128;28;20133;-75
2023/02/20 09:19:54;;;;;;;59.35;32.35;;;7.20;99.90;;;;;;4949560;28;20058;-75
2023/02/20 09:22:25;;;;;;;65.95;32.63;;;7.20;99.90;;;;;;4956346;28;20043;-77
2023/02/20 09:24:53;;;;;;;60.10;32.88;;;7.20;99.90;;;;;;4954775;28;20093;-75
2023/02/20 09:27:19;;;;;;;60.83;32.05;;;7.30;99.90;;;;;;4957347;28;20158;-75
2023/02/20 09:29:46;;;;;;;54.58;31.48;;;6.90;99.90;;;;;;4950368;28;20073;-75
2023/02/20 09:32:13;;;;;;;59.67;33.55;;;6.80;99.90;;;;;;4953265;28;20468;-75
2023/02/20 09:34:39;;;;;;;65.72;34.35;;;6.90;99.90;;;;;;4956316;28;20023;-75
2023/02/20 09:37:05;;;;;;;56.20;32.58;;;6.80;99.90;;;;;;4963919;28;20370;-75
2023/02/20 09:39:31;;;;;;;61.67;33.47;;;6.70;99.90;;;;;;4966571;28;20042;-75
2023/02/20 09:42:00;;;;;;;62.65;33.63;;;6.70;99.90;;;;;;4961756;28;20062;-75
2023/02/20 09:44:50;;;;;;;61.00;35.20;;;6.80;99.90;;;;;;4956876;28;20118;-74
2023/02/20 09:47:26;;;;;;;61.65;34.20;;;6.80;99.90;;;;;;4958964;28;20022;-74
2023/02/20 09:49:55;;;;;;;67.75;36.05;;;7.00;99.90;;;;;;4957162;28;20073;-74
2023/02/20 09:52:22;;;;;;;57.65;33.33;;;7.10;99.90;;;;;;4952413;28;20036;-74
2023/02/20 09:55:13;;;;;;;64.72;35.17;;;7.30;99.90;;;;;;4948718;28;20038;-74
2023/02/20 09:57:40;;;;;;;65.55;33.67;;;7.30;99.90;;;;;;4957941;28;20043;-74
2023/02/20 10:00:23;;;;;;;66.40;36.03;;;7.30;99.90;;;;;;4960587;28;20031;-74
2023/02/20 10:03:05;;;;;;;68.25;35.50;;;7.20;99.90;;;;;;4953259;28;20229;-74
2023/02/20 10:05:31;;;;;;;66.13;35.17;;;7.10;99.90;;;;;;4954872;28;20481;-74
2023/02/20 10:07:57;;;;;;;64.25;34.40;;;7.40;99.90;;;;;;4953089;28;20047;-74
2023/02/20 10:10:29;;;;;;;65.82;34.28;;;7.20;99.90;;;;;;4953841;28;20035;-74
2023/02/20 10:13:29;;;;;;;60.92;34.70;;;7.20;99.90;;;;;;4951882;28;20501;-73
2023/02/20 10:16:14;;;;;;;64.32;34.10;;;7.10;99.90;;;;;;4944458;28;20117;-74
2023/02/20 10:18:59;;;;;;;65.10;35.10;;;7.20;99.90;;;;;;4949650;28;20043;-74
2023/02/20 10:21:55;;;;;;;60.30;33.80;;;7.50;99.90;;;;;;4948940;28;20027;-74
2023/02/20 10:24:40;;;;;;;59.70;32.72;;;7.70;99.90;;;;;;4955825;28;20030;-74
2023/02/20 10:27:41;;;;;;;61.58;35.47;;;7.80;99.90;;;;;;4948601;28;20058;-74
2023/02/20 10:30:13;;;;;;;63.17;35.03;;;7.70;99.90;;;;;;4948532;28;20035;-74
2023/02/20 10:32:46;;;;;;;65.97;33.90;;;7.80;99.90;;;;;;4947726;28;20087;-74
2023/02/20 10:35:25;;;;;;;63.13;35.22;;;7.90;99.90;;;;;;4947557;28;20488;-74
2023/02/20 10:37:55;;;;;;;65.88;36.45;;;8.00;99.90;;;;;;4958537;28;20555;-73
2023/02/20 10:40:43;;;;;;;65.75;37.10;;;7.90;99.90;;;;;;4961909;28;20384;-74
2023/02/20 10:43:13;;;;;;;66.43;37.38;;;8.10;99.90;;;;;;4953115;28;20027;-73
2023/02/20 10:45:39;;;;;;;68.00;36.50;;;8.20;99.90;;;;;;4969989;28;20449;-74
2023/02/20 10:48:07;;;;;;;60.15;36.20;;;8.20;99.90;;;;;;4961235;28;20077;-74
2023/02/20 10:50:45;;;;;;;63.85;38.15;;;8.20;99.90;;;;;;4960122;28;20050;-74
2023/02/20 10:53:31;;;;;;;71.00;37.33;;;8.20;99.90;;;;;;4950706;28;20493;-73
2023/02/20 10:56:23;;;;;;;70.70;38.95;;;8.20;99.90;;;;;;4949673;28;20042;-74
2023/02/20 10:59:16;;;;;;;69.22;37.17;;;8.10;99.90;;;;;;4948428;28;20449;-74
2023/02/20 11:01:43;;;;;;;67.72;38.35;;;8.40;99.90;;;;;;4946214;28;20037;-74
2023/02/20 11:04:21;;;;;;;62.13;35.80;;;8.30;99.90;;;;;;4948550;28;20618;-74
2023/02/20 11:06:54;;;;;;;65.05;37.88;;;8.30;99.90;;;;;;4946739;28;20042;-73
2023/02/20 11:09:22;;;;;;;67.57;36.65;;;8.40;99.90;;;;;;4945822;28;20027;-74
2023/02/20 11:11:48;;;;;;;63.33;37.63;;;8.50;99.90;;;;;;4951204;28;20142;-74
2023/02/20 11:14:29;;;;;;;72.18;38.03;;;8.70;99.90;;;;;;4950962;28;20031;-74
2023/02/20 11:17:06;;;;;;;68.15;35.72;;;8.80;99.90;;;;;;4951891;28;20137;-74
2023/02/20 11:19:42;;;;;;;71.75;38.05;;;8.90;99.90;;;;;;4962556;28;20041;-75
2023/02/20 11:22:08;;;;;;;68.22;38.92;;;8.90;99.90;;;;;;4951410;28;20098;-74
2023/02/20 11:24:42;;;;;;;66.25;37.72;;;8.90;99.90;;;;;;4958174;28;20046;-74
2023/02/20 11:27:15;;;;;;;71.38;39.65;;;8.80;99.90;;;;;;4947465;28;20038;-74
2023/02/20 11:30:17;;;;;;;69.20;37.10;;;8.80;99.90;;;;;;4944951;28;20034;-74
2023/02/20 11:32:46;;;;;;;71.68;39.58;;;8.70;99.90;;;;;;4965399;28;20042;-75
2023/02/20 11:35:18;;;;;;;69.43;38.78;;;8.80;99.90;;;;;;4952346;28;20140;-74
2023/02/20 11:37:46;;;;;;;69.65;38.58;;;9.10;99.90;;;;;;4935830;28;20085;-74
2023/02/20 11:40:21;;;;;;;72.68;38.88;;;9.20;99.90;;;;;;4915108;29;20043;-74
2023/02/20 11:42:48;;;;;;;81.13;39.55;;;9.40;99.90;;;;;;4912320;29;20043;-72
2023/02/20 11:45:21;;;;;;;70.22;38.47;;;9.40;99.90;;;;;;4910654;29;20028;-74
2023/02/20 11:48:08;;;;;;;69.30;38.03;;;9.50;99.90;;;;;;4906823;29;20090;-73
2023/02/20 11:50:43;;;;;;;77.15;40.00;;;9.60;99.90;;;;;;4910679;29;20056;-72
2023/02/20 11:53:18;;;;;;;67.55;38.75;;;9.70;99.90;;;;;;4913196;29;20118;-72
2023/02/20 11:55:44;;;;;;;70.05;38.72;;;9.70;99.90;;;;;;4912574;29;20392;-73
2023/02/20 11:58:23;;;;;;;76.75;39.83;;;9.80;99.90;;;;;;4917943;29;20036;-74
2023/02/20 12:00:52;;;;;;;70.53;39.85;;;9.60;99.90;;;;;;4920177;29;20036;-75
2023/02/20 12:03:27;;;;;;;70.05;39.63;;;9.60;99.90;;;;;;4916982;29;20034;-74
2023/02/20 12:05:55;;;;;;;72.57;39.88;;;9.70;99.90;;;;;;4912538;29;20028;-74
2023/02/20 12:08:46;;;;;;;70.75;39.20;;;9.90;99.90;;;;;;4916142;29;20144;-74
2023/02/20 12:11:18;;;;;;;74.50;40.63;;;10.20;99.90;;;;;;4919552;29;20127;-74
2023/02/20 12:13:47;;;;;;;73.78;40.60;;;10.20;99.90;;;;;;4915811;29;20032;-74
2023/02/20 12:16:36;;;;;;;73.68;41.08;;;10.20;99.90;;;;;;4914269;29;20035;-74
2023/02/20 12:19:17;;;;;;;72.43;39.47;;;10.30;99.90;;;;;;4917087;29;20745;-74
2023/02/20 12:22:08;;;;;;;74.80;40.65;;;10.00;99.90;;;;;;4907427;29;20032;-74
2023/02/20 12:24:34;;;;;;;72.93;40.55;;;10.30;99.90;;;;;;4908676;29;20032;-74
2023/02/20 12:27:03;;;;;;;85.28;38.80;;;10.50;99.90;;;;;;4910473;29;20035;-72
2023/02/20 12:29:50;;;;;;;72.20;37.28;;;10.70;99.90;;;;;;4911146;29;20036;-74
2023/02/20 12:32:30;;;;;;;72.78;40.20;;;10.70;99.90;;;;;;4920001;29;20046;-75
2023/02/20 12:35:18;;;;;;;69.03;36.47;;;10.60;99.90;;;;;;4906471;29;20172;-74
2023/02/20 12:38:05;;;;;;;67.72;37.90;;;10.40;99.90;;;;;;4906677;29;20036;-74
2023/02/20 12:41:11;;;;;;;74.05;38.47;;;10.40;99.90;;;;;;4918174;29;20490;-74
2023/02/20 12:43:58;;;;;;;67.20;38.65;;;10.20;99.90;;;;;;4914588;29;20059;-74
2023/02/20 12:46:41;;;;;;;66.70;38.83;;;10.50;99.90;;;;;;4916705;29;20032;-74
2023/02/20 12:49:16;;;;;;;65.88;40.00;;;10.60;99.90;;;;;;4907163;29;20029;-74
2023/02/20 12:51:59;;;;;;;75.72;38.95;;;10.60;99.90;;;;;;4910064;29;20032;-74
2023/02/20 12:54:44;;;;;;;63.95;37.17;;;10.60;99.90;;;;;;4917294;29;20616;-74
2023/02/20 12:57:39;;;;;;;70.63;38.50;;;10.70;99.90;;;;;;4920530;29;20040;-73
2023/02/20 13:00:14;;;;;;;60.83;35.78;;;11.00;99.90;;;;;;4924620;29;20098;-75
2023/02/20 13:02:47;;;;;;;65.03;38.05;;;11.00;99.90;;;;;;4919202;29;20114;-78
2023/02/20 13:05:18;;;;;;;98.72;38.28;;;11.00;99.90;;;;;;4923448;29;20079;-76
2023/02/20 13:10:22;;;;;;;72.38;39.00;;;11.30;99.90;;;;;;4893369;29;20049;-74
2023/02/20 13:12:49;;;;;;;78.32;41.58;;;11.40;99.90;;;;;;4901048;29;20032;-75